Time;durP1;ratioP1;P1;durP2;ratioP2;P2;SDS_P1;SDS_P2;PMS_P1;PMS_P2;Temp;Humidity;BMP_temperature;BMP_pressure;BME280_temperature;BME280_humidity;BME280_pressure;Samples;Min_cycle;Max_cycle;Signal;HPM_P1;HPM_P2
2021/12/23 00:02:06;;;;;;;;;;;;;;;;;;;;;
2021/12/23 00:05:39;;;;;;;;;;;;;;;20.49;31.99;102162.06;98661;1398;70500;-82
2021/12/23 00:08:33;;;;;;;;;;;;;;;20.49;31.98;102166.33;98520;1396;75900;-82
2021/12/23 00:11:40;;;;;;;;;;;;;;;;;;;;;
2021/12/23 00:18:46;;;;;;;;;;;;;;;20.48;31.94;102158.14;98519;1394;71858;-82
2021/12/23 00:24:56;;;;;;;;;;;;;;;;;;;;;
2021/12/23 00:28:06;;;;;;;;;;;;;;;20.48;32.00;102151.73;97924;1399;61528;-82
2021/12/23 00:31:15;;;;;;;;;;;;;;;20.48;31.92;102149.41;97842;1405;74029;-83
2021/12/23 00:34:00;;;;;;;;;;;;;;;20.48;32.00;102147.61;97553;1408;75217;-82
2021/12/23 00:37:08;;;;;;;;;;;;;;;;;;;;;
2021/12/23 00:40:09;;;;;;;;;;;;;;;20.47;31.98;102150.87;98383;1396;62811;-82
2021/12/23 00:43:15;;;;;;;;;;;;;;;20.47;31.94;102149.09;98493;1401;72986;-83
2021/12/23 00:46:19;;;;;;;;;;;;;;;;;;;;;
2021/12/23 00:49:26;;;;;;;;;;;;;;;20.47;31.99;102152.12;98584;1402;61428;-82
2021/12/23 00:52:17;;;;;;;;;;;;;;;20.47;31.99;102152.48;98497;1400;62587;-83
2021/12/23 00:55:06;;;;;;;;;;;;;;;20.46;31.96;102149.47;98819;1392;73806;-83
2021/12/23 00:58:15;;;;;;;;;;;;;;;20.47;31.97;102153.38;98788;1393;73602;-83
2021/12/23 01:01:24;;;;;;;;;;;;;;;20.46;31.99;102149.65;98838;1393;63417;-82
2021/12/23 01:04:17;;;;;;;;;;;;;;;20.46;31.95;102148.95;98845;1395;61461;-83
2021/12/23 01:07:27;;;;;;;;;;;;;;;20.46;31.99;102147.69;98570;1395;70593;-82
2021/12/23 01:10:26;;;;;;;;;;;;;;;;;;;;;
2021/12/23 01:13:18;;;;;;;;;;;;;;;20.46;31.96;102143.56;98762;1389;61377;-82
2021/12/23 01:16:47;;;;;;;;;;;;;;;20.46;31.96;102140.91;98635;1396;61328;-82
2021/12/23 01:20:00;;;;;;;;;;;;;;;20.45;31.95;102141.13;98374;1403;73851;-82
2021/12/23 01:22:57;;;;;;;;;;;;;;;;;;;;;
2021/12/23 01:29:06;;;;;;;;;;;;;;;20.46;31.92;102137.70;97426;1411;61333;-82
2021/12/23 01:35:42;;;;;;;;;;;;;;;;;;;;;
2021/12/23 01:42:15;;;;;;;;;;;;;;;;;;;;;
2021/12/23 01:45:16;;;;;;;;;;;;;;;;;;;;;
2021/12/23 01:48:10;;;;;;;;;;;;;;;20.46;31.92;102138.42;98609;1395;74963;-82
2021/12/23 01:51:06;;;;;;;;;;;;;;;20.45;31.85;102139.52;98699;1394;61321;-82
2021/12/23 01:53:55;;;;;;;;;;;;;;;20.45;31.86;102142.73;98856;1390;61347;-83
2021/12/23 02:00:32;;;;;;;;;;;;;;;;;;;;;
2021/12/23 02:03:26;;;;;;;;;;;;;;;20.44;31.87;102142.23;99034;1391;61273;-82
2021/12/23 02:06:35;;;;;;;;;;;;;;;20.43;31.82;102138.87;98931;1389;61252;-82
2021/12/23 02:09:13;;;;;;;;;;;;;;;20.43;31.82;102142.26;99282;1389;73932;-82
2021/12/23 02:12:31;;;;;;;;;;;;;;;;;;;;;
2021/12/23 02:15:35;;;;;;;;;;;;;;;20.44;31.82;102147.98;99022;1389;61899;-83
2021/12/23 02:18:42;;;;;;;;;;;;;;;;;;;;;
2021/12/23 02:21:38;;;;;;;;;;;;;;;;;;;;;
2021/12/23 02:28:03;;;;;;;;;;;;;;;;;;;;;
2021/12/23 02:31:21;;;;;;;;;;;;;;;20.43;31.81;102149.08;98850;1395;62576;-83
2021/12/23 02:34:10;;;;;;;;;;;;;;;20.43;31.79;102147.27;98595;1393;73137;-83
2021/12/23 02:41:11;;;;;;;;;;;;;;;20.43;31.79;102143.72;98674;1395;61441;-82
2021/12/23 02:44:10;;;;;;;;;;;;;;;20.43;31.82;102144.59;98558;1397;61446;-82
2021/12/23 02:46:58;;;;;;;;;;;;;;;20.44;31.83;102144.92;98195;1398;71855;-82
2021/12/23 02:50:25;;;;;;;;;;;;;;;20.44;31.81;102143.30;98152;1398;74281;-83
2021/12/23 02:56:47;;;;;;;;;;;;;;;;;;;;;
2021/12/23 03:00:17;;;;;;;;;;;;;;;20.45;31.79;102142.91;98608;1398;74235;-82
2021/12/23 03:03:43;;;;;;;;;;;;;;;20.45;31.83;102143.09;98671;1398;76627;-82
2021/12/23 03:06:51;;;;;;;;;;;;;;;20.45;31.78;102146.85;98515;1398;61794;-82
2021/12/23 03:09:43;;;;;;;;;;;;;;;;;;;;;
2021/12/23 03:12:32;;;;;;;;;;;;;;;20.46;31.72;102142.54;98466;1395;72803;-83
2021/12/23 03:15:48;;;;;;;;;;;;;;;;;;;;;
2021/12/23 03:18:34;;;;;;;;;;;;;;;20.45;31.75;102138.44;98408;1395;61265;-83
2021/12/23 03:21:50;;;;;;;;;;;;;;;;;;;;;
2021/12/23 03:24:46;;;;;;;;;;;;;;;;;;;;;
2021/12/23 03:27:33;;;;;;;;;;;;;;;20.45;31.78;102141.48;98515;1396;75919;-81
2021/12/23 03:30:53;;;;;;;;;;;;;;;20.45;31.78;102138.80;98641;1397;61374;-83
2021/12/23 03:33:52;;;;;;;;;;;;;;;;;;;;;
2021/12/23 03:36:48;;;;;;;;;;;;;;;20.45;31.74;102141.67;98344;1396;73131;-82
2021/12/23 03:39:47;;;;;;;;;;;;;;;;;;;;;
2021/12/23 03:43:34;;;;;;;;;;;;;;;20.45;31.85;102143.64;98415;1399;61412;-83
2021/12/23 03:49:42;;;;;;;;;;;;;;;20.45;31.73;102150.42;98040;1398;73017;-82
2021/12/23 03:52:50;;;;;;;;;;;;;;;20.46;31.76;102149.52;98439;1398;75248;-82
2021/12/23 03:55:44;;;;;;;;;;;;;;;;;;;;;
2021/12/23 03:59:01;;;;;;;;;;;;;;;;;;;;;
2021/12/23 04:02:26;;;;;;;;;;;;;;;;;;;;;
2021/12/23 04:05:31;;;;;;;;;;;;;;;;;;;;;
2021/12/23 04:08:03;;;;;;;;;;;;;;;20.46;31.81;102161.45;98917;1386;61251;-82
2021/12/23 04:10:47;;;;;;;;;;;;;;;;;;;;;
2021/12/23 04:14:03;;;;;;;;;;;;;;;;;;;;;
2021/12/23 04:17:50;;;;;;;;;;;;;;;;;;;;;
2021/12/23 04:20:46;;;;;;;;;;;;;;;20.46;31.84;102164.48;98712;1398;61547;-83
2021/12/23 04:23:49;;;;;;;;;;;;;;;20.46;31.80;102167.73;98631;1392;61376;-82
2021/12/23 04:27:19;;;;;;;;;;;;;;;20.46;31.77;102168.60;98954;1380;74180;-83
2021/12/23 04:29:58;;;;;;;;;;;;;;;;;;;;;
2021/12/23 04:33:10;;;;;;;;;;;;;;;20.46;31.85;102173.63;98777;1389;61804;-83
2021/12/23 04:35:56;;;;;;;;;;;;;;;20.46;31.81;102174.50;98858;1390;61275;-83
2021/12/23 04:38:58;;;;;;;;;;;;;;;;;;;;;
2021/12/23 04:41:52;;;;;;;;;;;;;;;20.46;31.77;102177.55;98840;1391;74543;-83
2021/12/23 04:45:13;;;;;;;;;;;;;;;;;;;;;
2021/12/23 04:48:03;;;;;;;;;;;;;;;20.46;31.84;102170.58;98652;1394;62388;-82
2021/12/23 04:50:59;;;;;;;;;;;;;;;20.46;31.87;102175.60;98611;1396;72980;-81
2021/12/23 04:54:09;;;;;;;;;;;;;;;20.46;31.81;102173.84;98836;1393;75907;-82
2021/12/23 04:57:03;;;;;;;;;;;;;;;;;;;;;
2021/12/23 05:00:13;;;;;;;;;;;;;;;20.45;31.80;102173.84;98586;1393;61235;-81
2021/12/23 05:03:12;;;;;;;;;;;;;;;20.45;31.86;102173.84;98639;1397;72249;-81
2021/12/23 05:06:11;;;;;;;;;;;;;;;;;;;;;
2021/12/23 05:08:57;;;;;;;;;;;;;;;;;;;;;
2021/12/23 05:12:02;;;;;;;;;;;;;;;20.46;31.83;102175.79;99087;1391;61579;-83
2021/12/23 05:15:09;;;;;;;;;;;;;;;20.45;31.79;102175.81;99046;1391;71651;-82
2021/12/23 05:18:24;;;;;;;;;;;;;;;20.45;31.83;102177.23;98585;1396;73684;-83
2021/12/23 05:21:10;;;;;;;;;;;;;;;;;;;;;
2021/12/23 05:24:18;;;;;;;;;;;;;;;20.45;31.73;102180.29;98965;1392;61482;-83
2021/12/23 05:27:33;;;;;;;;;;;;;;;20.44;31.72;102173.88;99094;1389;71726;-82
2021/12/23 05:30:33;;;;;;;;;;;;;;;;;;;;;
2021/12/23 05:33:21;;;;;;;;;;;;;;;20.43;31.73;102176.61;99100;1389;61484;-83
2021/12/23 05:36:34;;;;;;;;;;;;;;;;;;;;;
2021/12/23 05:39:29;;;;;;;;;;;;;;;20.41;31.80;102174.02;99554;1380;72710;-83
2021/12/23 05:42:24;;;;;;;;;;;;;;;20.41;31.76;102173.68;99337;1385;74980;-83
2021/12/23 05:45:51;;;;;;;;;;;;;;;20.41;31.71;102175.63;98972;1389;61641;-82
2021/12/23 05:48:57;;;;;;;;;;;;;;;20.40;31.75;102172.64;98962;1393;61536;-83
2021/12/23 05:52:01;;;;;;;;;;;;;;;;;;;;;
2021/12/23 05:55:01;;;;;;;;;;;;;;;;;;;;;
2021/12/23 05:58:02;;;;;;;;;;;;;;;20.39;31.77;102177.00;98965;1392;61295;-83
2021/12/23 06:01:00;;;;;;;;;;;;;;;;;;;;;
2021/12/23 06:04:14;;;;;;;;;;;;;;;;;;;;;
2021/12/23 06:07:11;;;;;;;;;;;;;;;20.38;31.79;102183.46;98970;1392;74936;-83
2021/12/23 06:10:29;;;;;;;;;;;;;;;20.38;31.71;102187.05;98619;1389;61481;-81
2021/12/23 06:13:24;;;;;;;;;;;;;;;20.38;31.72;102192.04;98587;1388;61596;-81
2021/12/23 06:16:31;;;;;;;;;;;;;;;20.39;31.73;102189.70;98338;1395;74026;-82
2021/12/23 06:19:19;;;;;;;;;;;;;;;;;;;;;
2021/12/23 06:22:17;;;;;;;;;;;;;;;20.40;31.72;102189.98;98528;1390;61415;-82
2021/12/23 06:25:12;;;;;;;;;;;;;;;20.40;31.68;102194.29;98812;1386;61269;-81
2021/12/23 06:27:53;;;;;;;;;;;;;;;20.40;31.75;102193.75;98925;1384;74116;-81
2021/12/23 06:30:35;;;;;;;;;;;;;;;20.41;31.76;102193.54;99248;1379;75990;-81
2021/12/23 06:33:12;;;;;;;;;;;;;;;20.41;31.74;102193.35;100056;1371;61735;-81
2021/12/23 06:35:50;;;;;;;;;;;;;;;20.41;31.69;102198.19;99841;1371;61340;-81
2021/12/23 06:38:32;;;;;;;;;;;;;;;;;;;;;
2021/12/23 06:41:15;;;;;;;;;;;;;;;20.41;31.73;102194.40;100054;1371;74969;-82
2021/12/23 06:44:04;;;;;;;;;;;;;;;20.41;31.72;102192.81;100070;1375;61396;-81
2021/12/23 06:46:46;;;;;;;;;;;;;;;;;;;;;
2021/12/23 06:49:49;;;;;;;;;;;;;;;;;;;;;
2021/12/23 06:53:12;;;;;;;;;;;;;;;20.42;31.68;102199.37;100038;1369;75276;-81
2021/12/23 06:55:26;;;;;;;;;;;;;;;20.42;31.67;102198.13;100893;1360;61405;-82
2021/12/23 06:58:22;;;;;;;;;;;;;;;20.43;31.61;102195.59;101003;1360;61332;-81
2021/12/23 07:01:09;;;;;;;;;;;;;;;20.42;31.63;102202.02;101009;1363;74199;-81
2021/12/23 07:04:03;;;;;;;;;;;;;;;20.43;31.61;102197.71;101243;1362;74933;-81
2021/12/23 07:06:58;;;;;;;;;;;;;;;;;;;;;
2021/12/23 07:09:44;;;;;;;;;;;;;;;20.39;31.40;102193.96;101184;1359;61587;-81
2021/12/23 07:12:59;;;;;;;;;;;;;;;20.37;31.29;102198.52;101146;1362;71674;-81
2021/12/23 07:15:40;;;;;;;;;;;;;;;20.36;31.23;102196.63;101240;1356;76076;-81
2021/12/23 07:18:09;;;;;;;;;;;;;;;20.36;30.98;102194.48;101372;1356;61162;-80
2021/12/23 07:20:54;;;;;;;;;;;;;;;20.35;30.96;102193.42;101305;1351;61261;-82
2021/12/23 07:23:50;;;;;;;;;;;;;;;20.37;31.02;102191.56;101610;1357;72777;-81
2021/12/23 07:26:26;;;;;;;;;;;;;;;20.37;30.84;102192.11;101519;1354;74828;-81
2021/12/23 07:29:22;;;;;;;;;;;;;;;20.37;30.79;102190.99;101544;1353;61293;-81
2021/12/23 07:32:15;;;;;;;;;;;;;;;20.39;30.71;102192.21;101483;1355;61406;-82
2021/12/23 07:34:50;;;;;;;;;;;;;;;20.39;30.60;102193.23;101145;1360;72929;-83
2021/12/23 07:37:59;;;;;;;;;;;;;;;20.40;30.64;102196.27;100225;1367;73449;-81
2021/12/23 07:40:35;;;;;;;;;;;;;;;20.41;30.76;102203.20;100259;1371;59462;-81
2021/12/23 07:43:20;;;;;;;;;;;;;;;;;;;;;
2021/12/23 07:46:07;;;;;;;;;;;;;;;20.42;30.69;102206.51;100202;1368;71897;-81
2021/12/23 07:49:04;;;;;;;;;;;;;;;20.42;30.57;102206.52;100295;1368;74947;-80
2021/12/23 07:51:33;;;;;;;;;;;;;;;20.43;30.67;102205.41;100270;1367;61461;-82
2021/12/23 07:54:17;;;;;;;;;;;;;;;;;;;;;
2021/12/23 07:57:06;;;;;;;;;;;;;;;20.43;30.66;102206.46;100268;1372;71517;-81
2021/12/23 07:59:51;;;;;;;;;;;;;;;20.44;30.66;102205.73;100268;1368;74647;-81
2021/12/23 08:02:22;;;;;;;;;;;;;;;20.44;30.66;102199.98;100179;1372;61367;-81
2021/12/23 08:08:09;;;;;;;;;;;;;;;20.45;30.68;102199.78;100142;1367;72631;-81
2021/12/23 08:10:54;;;;;;;;;;;;;;;20.44;30.71;102199.64;100179;1368;74630;-82
2021/12/23 08:13:32;;;;;;;;;;;;;;;20.45;30.70;102204.25;100552;1364;61244;-81
2021/12/23 08:16:39;;;;;;;;;;;;;;;20.46;30.64;102208.34;101532;1354;61342;-81
2021/12/23 08:19:21;;;;;;;;;;;;;;;;;;;;;
2021/12/23 08:22:37;;;;;;;;;;;;;;;20.44;30.68;102205.71;101622;1351;74767;-82
2021/12/23 08:25:44;;;;;;;;;;;;;;;;;;;;;
2021/12/23 08:28:20;;;;;;;;;;;;;;;20.45;30.61;102206.21;101622;1351;61315;-81
2021/12/23 08:30:51;;;;;;;;;;;;;;;20.45;30.77;102204.45;101431;1354;73796;-81
2021/12/23 08:33:25;;;;;;;;;;;;;;;20.46;30.82;102201.20;101397;1357;75760;-82
2021/12/23 08:35:55;;;;;;;;;;;;;;;20.46;30.72;102199.39;101472;1353;60720;-82
2021/12/23 08:38:38;;;;;;;;;;;;;;;20.46;31.06;102199.91;101426;1353;62046;-81
2021/12/23 08:41:13;;;;;;;;;;;;;;;20.46;30.84;102199.39;101491;1351;73612;-81
2021/12/23 08:43:41;;;;;;;;;;;;;;;20.46;30.80;102197.05;101292;1355;74774;-80
2021/12/23 08:46:28;;;;;;;;;;;;;;;;;;;;;
2021/12/23 08:49:02;;;;;;;;;;;;;;;20.46;30.85;102193.50;101695;1350;61361;-81
2021/12/23 08:51:51;;;;;;;;;;;;;;;20.46;30.88;102191.16;101455;1355;74423;-82
2021/12/23 08:54:43;;;;;;;;;;;;;;;20.47;30.74;102192.20;101500;1353;75714;-81
2021/12/23 08:57:25;;;;;;;;;;;;;;;20.46;30.72;102191.88;101584;1353;61364;-83
2021/12/23 09:00:00;;;;;;;;;;;;;;;20.46;30.74;102190.77;101540;1354;61468;-82
2021/12/23 09:02:49;;;;;;;;;;;;;;;20.47;30.67;102185.04;101582;1351;72845;-82
2021/12/23 09:05:23;;;;;;;;;;;;;;;20.47;30.62;102175.36;101592;1351;75932;-82
2021/12/23 09:08:10;;;;;;;;;;;;;;;20.47;30.69;102178.04;101543;1357;61202;-81
2021/12/23 09:10:49;;;;;;;;;;;;;;;20.47;30.69;102172.66;101535;1358;61808;-81
2021/12/23 09:13:46;;;;;;;;;;;;;;;20.47;30.81;102169.63;101555;1351;72933;-81
2021/12/23 09:16:19;;;;;;;;;;;;;;;20.48;30.78;102165.84;101518;1357;75847;-82
2021/12/23 09:19:14;;;;;;;;;;;;;;;20.48;30.86;102159.24;101387;1356;61231;-82
2021/12/23 09:21:50;;;;;;;;;;;;;;;20.48;30.77;102154.57;101371;1354;61507;-81
2021/12/23 09:24:37;;;;;;;;;;;;;;;20.49;30.86;102149.38;101009;1361;72003;-81
2021/12/23 09:27:53;;;;;;;;;;;;;;;;;;;;;
2021/12/23 09:34:15;;;;;;;;;;;;;;;;;;;;;
2021/12/23 09:37:14;;;;;;;;;;;;;;;;;;;;;
2021/12/23 09:39:53;;;;;;;;;;;;;;;;;;;;;
2021/12/23 09:42:29;;;;;;;;;;;;;;;20.50;31.02;102123.92;100015;1374;61241;-81
2021/12/23 09:44:58;;;;;;;;;;;;;;;20.51;30.92;102124.58;100081;1375;61604;-81
2021/12/23 09:47:47;;;;;;;;;;;;;;;20.50;30.93;102120.48;100146;1368;71913;-82
2021/12/23 09:50:22;;;;;;;;;;;;;;;20.51;30.92;102114.73;100118;1371;74984;-81
2021/12/23 09:53:02;;;;;;;;;;;;;;;20.51;30.98;102113.85;100108;1368;61295;-81
2021/12/23 09:55:50;;;;;;;;;;;;;;;20.51;30.94;102108.81;100280;1368;61284;-81
2021/12/23 09:58:35;;;;;;;;;;;;;;;20.50;30.91;102104.91;100176;1371;73020;-81
2021/12/23 10:04:24;;;;;;;;;;;;;;;20.51;30.92;102095.05;100326;1369;61579;-80
2021/12/23 10:06:51;;;;;;;;;;;;;;;20.51;30.98;102087.19;100007;1371;61457;-82
2021/12/23 10:09:41;;;;;;;;;;;;;;;20.51;30.93;102081.48;100022;1377;73972;-81
2021/12/23 10:13:16;;;;;;;;;;;;;;;20.51;30.93;102080.20;99873;1374;74886;-81
2021/12/23 10:38:29;;;;;;;;;;;;;;;20.51;30.99;102034.26;99162;1388;73759;-83
2021/12/23 10:41:15;;;;;;;;;;;;;;;20.51;31.00;102027.09;99089;1384;61553;-83
2021/12/23 10:43:50;;;;;;;;;;;;;;;20.51;31.01;102018.69;98695;1390;61383;-83
2021/12/23 10:46:29;;;;;;;;;;;;;;;20.51;31.04;102019.76;98666;1392;74035;-83
2021/12/23 10:52:15;;;;;;;;;;;;;;;20.51;31.03;102006.17;98792;1392;60437;-83
2021/12/23 10:58:56;;;;;;;;;;;;;;;20.51;31.04;102001.70;98552;1393;73262;-82
2021/12/23 11:01:40;;;;;;;;;;;;;;;;;;;;;
2021/12/23 11:04:33;;;;;;;;;;;;;;;;;;;;;
2021/12/23 11:07:51;;;;;;;;;;;;;;;20.51;31.10;101992.22;98715;1394;61514;-83
2021/12/23 11:37:40;;;;;;;;;;;;;;;20.51;31.22;101953.77;100171;1378;71708;-82
2021/12/23 11:43:43;;;;;;;;;;;;;;;;;;;;;
2021/12/23 11:46:49;;;;;;;;;;;;;;;20.51;31.32;101943.05;99276;1386;61507;-83
2021/12/23 11:53:05;;;;;;;;;;;;;;;;;;;;;
2021/12/23 11:56:04;;;;;;;;;;;;;;;20.52;31.35;101938.36;99264;1381;61110;-83
2021/12/23 11:59:05;;;;;;;;;;;;;;;;;;;;;
2021/12/23 12:01:41;;;;;;;;;;;;;;;20.51;31.39;101932.13;98617;1395;72726;-81
2021/12/23 12:04:37;;;;;;;;;;;;;;;20.51;31.56;101929.28;98640;1394;73742;-81
2021/12/23 12:07:35;;;;;;;;;;;;;;;20.51;31.35;101928.57;98701;1393;61594;-82
2021/12/23 12:10:59;;;;;;;;;;;;;;;;;;;;;
2021/12/23 12:13:56;;;;;;;;;;;;;;;20.51;31.44;101922.29;98592;1398;71964;-82
2021/12/23 12:17:09;;;;;;;;;;;;;;;;;;;;;
2021/12/23 12:21:00;;;;;;;;;;;;;;;20.52;31.51;101920.65;97991;1400;61462;-82
2021/12/23 12:23:28;;;;;;;;;;;;;;;20.53;31.60;101914.36;97819;1398;61622;-81
2021/12/23 12:26:23;;;;;;;;;;;;;;;20.52;31.58;101911.67;97782;1397;72140;-80
2021/12/23 12:29:10;;;;;;;;;;;;;;;20.53;31.71;101907.50;97750;1401;75402;-84
2021/12/23 12:32:15;;;;;;;;;;;;;;;20.53;31.67;101906.64;97219;1409;61349;-81
2021/12/23 12:35:31;;;;;;;;;;;;;;;20.53;31.78;101901.61;97064;1406;60410;-82
2021/12/23 12:39:00;;;;;;;;;;;;;;;20.53;31.82;101899.47;97156;1411;72773;-82
2021/12/23 12:41:59;;;;;;;;;;;;;;;20.53;31.88;101890.52;97238;1409;74984;-82
2021/12/23 12:45:11;;;;;;;;;;;;;;;20.53;31.77;101886.78;96842;1415;61427;-81
2021/12/23 12:48:15;;;;;;;;;;;;;;;;;;;;;
2021/12/23 12:51:18;;;;;;;;;;;;;;;20.54;31.85;101883.19;96205;1420;72358;-82
2021/12/23 12:54:52;;;;;;;;;;;;;;;20.54;31.80;101878.35;96264;1417;76043;-81
2021/12/23 12:57:42;;;;;;;;;;;;;;;20.55;31.88;101878.67;96469;1419;61394;-82
2021/12/23 13:00:47;;;;;;;;;;;;;;;;;;;;;
2021/12/23 13:04:10;;;;;;;;;;;;;;;;;;;;;
2021/12/23 13:07:03;;;;;;;;;;;;;;;;;;;;;
2021/12/23 13:10:25;;;;;;;;;;;;;;;;;;;;;
2021/12/23 13:13:08;;;;;;;;;;;;;;;20.57;31.88;101867.62;96806;1412;61765;-81
2021/12/23 13:15:59;;;;;;;;;;;;;;;;;;;;;
2021/12/23 13:18:54;;;;;;;;;;;;;;;;;;;;;
2021/12/23 13:21:45;;;;;;;;;;;;;;;;;;;;;
2021/12/23 13:27:41;;;;;;;;;;;;;;;20.58;31.86;101855.76;97009;1409;71900;-84
2021/12/23 13:31:02;;;;;;;;;;;;;;;20.59;31.95;101857.52;97526;1409;75008;-82
2021/12/23 13:34:10;;;;;;;;;;;;;;;;;;;;;
2021/12/23 13:40:21;;;;;;;;;;;;;;;20.60;31.86;101857.63;96669;1417;71774;-82
2021/12/23 13:43:36;;;;;;;;;;;;;;;20.60;31.96;101858.14;96794;1412;73313;-83
2021/12/23 13:46:45;;;;;;;;;;;;;;;20.60;31.93;101858.50;96193;1426;61343;-83
2021/12/23 13:49:35;;;;;;;;;;;;;;;20.61;32.00;101856.69;96224;1429;61372;-84
2021/12/23 13:52:39;;;;;;;;;;;;;;;;;;;;;
2021/12/23 13:55:36;;;;;;;;;;;;;;;20.61;31.89;101850.41;96029;1427;74824;-83
2021/12/23 13:58:36;;;;;;;;;;;;;;;20.61;32.04;101845.08;95979;1431;61479;-83
2021/12/23 14:01:57;;;;;;;;;;;;;;;20.62;32.04;101845.92;96062;1433;61404;-83
2021/12/23 14:05:13;;;;;;;;;;;;;;;;;;;;;
2021/12/23 14:08:32;;;;;;;;;;;;;;;;;;;;;
2021/12/23 14:11:31;;;;;;;;;;;;;;;;;;;;;
2021/12/23 14:14:56;;;;;;;;;;;;;;;20.62;31.93;101830.52;96148;1430;62314;-82
2021/12/23 14:18:00;;;;;;;;;;;;;;;20.63;31.96;101826.73;96070;1430;73119;-82
2021/12/23 14:27:26;;;;;;;;;;;;;;;;;;;;;
2021/12/23 14:30:32;;;;;;;;;;;;;;;20.64;32.13;101807.53;96137;1425;73083;-82
2021/12/23 14:33:34;;;;;;;;;;;;;;;20.63;31.99;101802.92;96036;1430;73795;-82
2021/12/23 14:36:33;;;;;;;;;;;;;;;;;;;;;
2021/12/23 14:39:46;;;;;;;;;;;;;;;20.63;32.13;101799.88;96239;1419;61429;-82
2021/12/23 14:46:22;;;;;;;;;;;;;;;20.64;32.31;101795.90;95769;1437;76080;-82
2021/12/23 14:49:58;;;;;;;;;;;;;;;20.64;32.14;101795.73;95603;1434;61636;-82
2021/12/23 14:52:55;;;;;;;;;;;;;;;;;;;;;
2021/12/23 14:56:16;;;;;;;;;;;;;;;;;;;;;
2021/12/23 14:59:25;;;;;;;;;;;;;;;;;;;;;
2021/12/23 15:02:11;;;;;;;;;;;;;;;20.64;32.20;101800.35;102173;1349;72212;-82
2021/12/23 15:05:07;;;;;;;;;;;;;;;;;;;;;
2021/12/23 15:08:50;;;;;;;;;;;;;;;;;;;;;
2021/12/23 15:11:32;;;;;;;;;;;;;;;20.64;32.38;101793.39;101774;1357;73996;-83
2021/12/23 15:14:30;;;;;;;;;;;;;;;;;;;;;
2021/12/23 15:17:10;;;;;;;;;;;;;;;20.64;32.21;101787.33;101145;1357;71361;-82
2021/12/23 15:19:52;;;;;;;;;;;;;;;20.63;32.26;101788.63;101572;1359;60263;-82
2021/12/23 15:23:00;;;;;;;;;;;;;;;;;;;;;
2021/12/23 15:25:55;;;;;;;;;;;;;;;20.62;32.05;101797.06;101487;1361;73167;-83
2021/12/23 15:29:04;;;;;;;;;;;;;;;20.62;32.20;101788.14;101553;1357;71916;-84
2021/12/23 15:32:00;;;;;;;;;;;;;;;20.62;32.21;101782.79;101487;1357;60042;-83
2021/12/23 15:35:29;;;;;;;;;;;;;;;20.61;32.21;101786.94;101563;1357;61202;-82
2021/12/23 15:37:55;;;;;;;;;;;;;;;20.61;32.30;101788.90;101421;1359;73262;-82
2021/12/23 15:41:07;;;;;;;;;;;;;;;;;;;;;
2021/12/23 15:44:08;;;;;;;;;;;;;;;20.61;32.25;101786.40;101907;1354;60443;-83
2021/12/23 15:47:04;;;;;;;;;;;;;;;;;;;;;
2021/12/23 15:50:14;;;;;;;;;;;;;;;20.60;32.25;101779.48;101236;1360;72759;-83
2021/12/23 15:55:37;;;;;;;;;;;;;;;20.60;32.27;101781.26;101303;1359;60030;-84
2021/12/23 15:58:52;;;;;;;;;;;;;;;20.60;32.23;101781.61;100762;1363;59630;-83
2021/12/23 16:01:28;;;;;;;;;;;;;;;;;;;;;
2021/12/23 16:04:57;;;;;;;;;;;;;;;20.60;32.36;101773.22;100600;1370;71985;-82
2021/12/23 16:07:41;;;;;;;;;;;;;;;20.59;32.36;101772.91;100477;1369;59719;-82
2021/12/23 16:10:28;;;;;;;;;;;;;;;20.59;32.47;101771.27;100638;1371;61608;-82
2021/12/23 16:13:23;;;;;;;;;;;;;;;20.59;32.41;101775.04;100383;1369;74078;-82
2021/12/23 16:16:15;;;;;;;;;;;;;;;20.59;32.29;101776.98;100634;1369;74541;-82
2021/12/23 16:18:52;;;;;;;;;;;;;;;20.59;32.34;101771.98;100492;1369;60102;-82
2021/12/23 16:22:11;;;;;;;;;;;;;;;;;;;;;
2021/12/23 16:24:56;;;;;;;;;;;;;;;20.59;32.36;101762.88;101014;1360;73048;-82
2021/12/23 16:27:51;;;;;;;;;;;;;;;20.58;32.49;101754.14;101386;1354;73259;-82
2021/12/23 16:30:30;;;;;;;;;;;;;;;20.59;32.41;101751.06;101660;1348;60085;-82
2021/12/23 16:33:04;;;;;;;;;;;;;;;20.59;32.36;101747.88;101865;1348;60756;-82
2021/12/23 16:36:13;;;;;;;;;;;;;;;20.59;32.34;101737.33;101879;1346;71772;-83
2021/12/23 16:39:12;;;;;;;;;;;;;;;20.59;32.57;101730.34;101881;1348;73200;-82
2021/12/23 16:41:48;;;;;;;;;;;;;;;20.59;32.36;101730.14;101729;1354;60245;-82
2021/12/23 16:44:14;;;;;;;;;;;;;;;20.60;32.33;101728.86;101746;1351;61464;-80
2021/12/23 16:46:46;;;;;;;;;;;;;;;20.60;32.49;101722.45;101713;1355;72976;-82
2021/12/23 16:49:41;;;;;;;;;;;;;;;20.59;32.52;101720.70;101727;1355;74361;-82
2021/12/23 16:52:27;;;;;;;;;;;;;;;20.58;32.60;101724.30;101851;1352;60364;-82
2021/12/23 16:58:10;;;;;;;;;;;;;;;20.57;32.40;101721.65;101648;1349;72707;-82
2021/12/23 17:00:41;;;;;;;;;;;;;;;20.58;32.50;101723.23;101712;1348;74126;-82
2021/12/23 17:03:27;;;;;;;;;;;;;;;20.58;32.48;101719.82;101822;1348;60311;-82
2021/12/23 17:06:25;;;;;;;;;;;;;;;20.58;32.50;101715.73;101895;1352;59592;-81
2021/12/23 17:09:32;;;;;;;;;;;;;;;20.58;32.52;101711.61;101792;1351;73366;-82
2021/12/23 17:12:16;;;;;;;;;;;;;;;20.58;32.53;101703.55;101696;1358;73142;-82
2021/12/23 17:15:13;;;;;;;;;;;;;;;;;;;;;
2021/12/23 17:17:59;;;;;;;;;;;;;;;;;;;;;
2021/12/23 17:23:34;;;;;;;;;;;;;;;20.58;32.57;101697.30;101804;1354;73441;-82
2021/12/23 17:26:15;;;;;;;;;;;;;;;20.58;32.59;101694.64;101872;1355;59193;-82
2021/12/23 17:28:58;;;;;;;;;;;;;;;;;;;;;
2021/12/23 17:32:02;;;;;;;;;;;;;;;20.58;32.63;101678.20;101950;1352;71463;-83
2021/12/23 17:34:48;;;;;;;;;;;;;;;20.57;32.50;101671.77;101527;1363;72956;-83
2021/12/23 17:37:45;;;;;;;;;;;;;;;20.57;32.49;101674.27;101539;1361;59782;-84
2021/12/23 17:40:27;;;;;;;;;;;;;;;20.56;32.54;101668.80;101554;1357;59892;-84
2021/12/23 17:43:42;;;;;;;;;;;;;;;20.57;32.76;101663.73;101552;1361;71611;-84
2021/12/23 17:46:32;;;;;;;;;;;;;;;20.57;32.52;101657.45;101544;1361;72302;-83
2021/12/23 17:49:28;;;;;;;;;;;;;;;20.57;32.61;101654.96;101161;1362;59746;-84
2021/12/23 17:52:03;;;;;;;;;;;;;;;;;;;;;
2021/12/23 17:55:37;;;;;;;;;;;;;;;20.57;32.54;101641.92;101491;1357;71806;-83
2021/12/23 17:58:24;;;;;;;;;;;;;;;;;;;;;
2021/12/23 18:01:23;;;;;;;;;;;;;;;20.57;32.56;101636.58;101197;1367;59974;-84
2021/12/23 18:04:06;;;;;;;;;;;;;;;20.57;32.65;101629.05;101238;1366;60475;-82
2021/12/23 18:06:56;;;;;;;;;;;;;;;20.57;32.69;101621.19;100821;1366;72874;-83
2021/12/23 18:09:55;;;;;;;;;;;;;;;20.57;32.67;101619.60;101263;1366;74159;-82
2021/12/23 18:12:43;;;;;;;;;;;;;;;20.56;32.54;101621.21;101395;1357;61267;-83
2021/12/23 18:15:26;;;;;;;;;;;;;;;20.57;32.67;101616.90;101230;1360;60645;-83
2021/12/23 18:18:23;;;;;;;;;;;;;;;;;;;;;
2021/12/23 18:21:37;;;;;;;;;;;;;;;20.56;32.53;101622.11;101068;1363;73075;-83
2021/12/23 18:24:25;;;;;;;;;;;;;;;20.57;32.68;101624.06;101053;1366;60264;-83
2021/12/23 18:27:05;;;;;;;;;;;;;;;20.57;32.72;101618.34;101406;1360;60661;-82
2021/12/23 18:29:52;;;;;;;;;;;;;;;20.57;32.64;101616.70;101498;1354;73947;-83
2021/12/23 18:32:30;;;;;;;;;;;;;;;;;;;;;
2021/12/23 18:35:08;;;;;;;;;;;;;;;20.57;32.50;101595.80;101736;1352;60856;-82
2021/12/23 18:37:53;;;;;;;;;;;;;;;;;;;;;
2021/12/23 18:40:43;;;;;;;;;;;;;;;;;;;;;
2021/12/23 18:43:48;;;;;;;;;;;;;;;;;;;;;
2021/12/23 18:46:44;;;;;;;;;;;;;;;20.57;32.86;101577.58;101824;1354;60180;-84
2021/12/23 18:49:32;;;;;;;;;;;;;;;20.56;32.79;101582.77;101951;1352;60366;-83
2021/12/23 18:52:15;;;;;;;;;;;;;;;;;;;;;
2021/12/23 18:55:03;;;;;;;;;;;;;;;20.56;32.75;101584.42;101817;1350;73251;-83
2021/12/23 18:58:19;;;;;;;;;;;;;;;;;;;;;
2021/12/23 19:01:31;;;;;;;;;;;;;;;20.56;32.65;101587.27;101221;1364;59697;-83
2021/12/23 19:04:41;;;;;;;;;;;;;;;;;;;;;
2021/12/23 19:07:13;;;;;;;;;;;;;;;20.56;32.74;101573.48;101186;1360;73030;-81
2021/12/23 19:09:59;;;;;;;;;;;;;;;20.56;32.70;101569.73;101123;1367;61184;-84
2021/12/23 19:13:01;;;;;;;;;;;;;;;;;;;;;
2021/12/23 19:16:06;;;;;;;;;;;;;;;;;;;;;
2021/12/23 19:19:06;;;;;;;;;;;;;;;20.57;32.75;101562.89;100669;1366;73241;-82
2021/12/23 19:21:41;;;;;;;;;;;;;;;20.56;32.72;101565.95;100675;1371;59839;-83
2021/12/23 19:24:27;;;;;;;;;;;;;;;20.56;32.94;101568.11;100996;1366;61295;-84
2021/12/23 19:27:20;;;;;;;;;;;;;;;20.56;32.92;101569.73;100455;1372;71702;-82
2021/12/23 19:30:17;;;;;;;;;;;;;;;20.56;32.85;101563.30;100422;1367;73398;-82
2021/12/23 19:32:53;;;;;;;;;;;;;;;20.56;32.83;101559.03;100439;1369;60272;-82
2021/12/23 19:35:51;;;;;;;;;;;;;;;20.55;32.89;101552.08;101030;1354;61743;-82